Update 04.10.19: Almanach/History: Die WU Grafiken funktionieren wieder!!
Besuchen Sie den Menüpunkt "Almanach / History" WU-Grafiken um Wetterdaten über die Jahre zu vergleichen!
Die Daten stammen von meiner Wetterstation und wurden von Weatherunderground aufgezeichnet.

Rindlberg West Mehr Informationen Rindlberg West


Stuetzi - Rindlberg Ost Mehr Informationen Stuetzi - Rindlberg Ost


Regenradar Mehr Informationen rain snow radar


Sie finden meine Wetter-Infos auch auf:

Weather Underground

AWEKAS



Wählen sie eine andere Periode ( ausblenden )

Einheiten Zeitraum Benutzerdef. Zeitraum Direkt zu
metrisch Englisch Beide
Täglich Wöchentlich Monatlich Jährlich
Beide Datumseingaben nutzen um einen Bereich festzulegen
vorheriger Tag
Mit diesem Datum

WU Grafiken für diese Periode ( klicken )


Täglich Zusammenfassung für Sonntag 08 Dezember 2019
Zeit Temp. ( °C ) Taupt. ( °C ) Wind ( km/h ) von Windböen ( km/h ) Luftdruck ( hPa ) Luftf.( % ) Regenrate ( cm )
Hoch4,9 2,1 24,1 WSW ( 645/1550 ) 27,4 1016,8 91 -
Durchchnittswerte2,7 1,1 11,4 WSW #54/136 18,5 1014,5 89 -
Tief1,7 0,1 -   9,7 1012,8 81 -
Täglich tabellarische Details für Sonntag 08 Dezember 2019
Zeit Temp. ( °C ) Taupt. ( °C ) Wind ( km/h ) von Windböen ( km/h ) Luftdruck ( hPa ) Luftf.( % ) Regenrate ( cm )
00:00 2,8 1,3 12,9 Westen 25,7 1016,8 90 -
00:05 2,8 1,2 12,9 WNW 25,7 1015,8 89 -
00:10 2,7 1,1 6,4 Westen 25,7 1015,8 89 -
00:15 2,7 1,1 12,9 WSW 17,7 1015,8 89 -
00:20 2,7 1,1 8,0 Westen 17,7 1016,8 89 -
00:25 2,7 1,1 8,0 Westen 17,7 1016,8 89 -
00:30 2,7 1,2 12,9 Westen 16,1 1016,8 90 -
00:35 2,7 1,2 17,7 Westen 20,9 1015,8 90 -
00:40 2,8 1,3 8,0 Westen 20,9 1015,8 90 -
00:45 2,8 1,3 12,9 WSW 27,4 1015,8 90 -
00:50 2,8 1,3 12,9 WSW 27,4 1015,8 90 -
00:55 2,8 1,3 17,7 WSW 27,4 1015,8 90 -
01:00 2,8 1,3 12,9 WSW 16,1 1015,8 90 -
01:05 2,8 1,3 9,7 WSW 17,7 1015,8 90 -
01:10 2,8 1,3 9,7 SW 17,7 1015,8 90 -
01:15 2,8 1,3 9,7 Westen 17,7 1015,8 90 -
01:20 2,8 1,3 8,0 SW 17,7 1015,8 90 -
01:25 2,8 1,3 12,9 Westen 17,7 1015,8 90 -
01:30 2,8 1,3 12,9 Westen 20,9 1015,8 90 -
01:35 2,8 1,3 8,0 WSW 20,9 1015,8 90 -
01:40 2,8 1,3 9,7 WSW 20,9 1015,8 90 -
01:45 2,8 1,3 6,4 Westen 16,1 1015,8 90 -
01:50 2,8 1,3 12,9 SW 17,7 1015,8 90 -
01:55 2,8 1,3 8,0 WSW 20,9 1015,8 90 -
02:00 2,7 1,2 8,0 WNW 20,9 1015,8 90 -
02:05 2,7 1,2 9,7 WSW 20,9 1015,8 90 -
02:10 2,7 1,2 12,9 WSW 16,1 1015,8 90 -
02:15 2,8 1,3 12,9 WSW 17,7 1015,8 90 -
02:20 2,8 1,3 12,9 WSW 20,9 1015,8 90 -
02:25 2,7 1,2 12,9 WNW 20,9 1015,8 90 -
02:30 2,8 1,3 8,0 WSW 20,9 1015,8 90 -
02:35 2,8 1,3 12,9 WNW 20,9 1015,8 90 -
02:40 2,8 1,3 12,9 SW 17,7 1015,8 90 -
02:45 2,8 1,5 4,8 WNW 17,7 1015,8 91 -
02:50 2,8 1,5 9,7 WSW 17,7 1015,8 91 -
02:55 2,8 1,5 14,5 SW 17,7 1015,8 91 -
03:00 2,8 1,5 9,7 Westen 17,7 1015,8 91 -
03:05 2,8 1,5 9,7 WNW 17,7 1015,8 91 -
03:10 2,8 1,5 12,9 WSW 16,1 1015,8 91 -
03:15 2,7 1,4 6,4 Westen 19,3 1015,8 91 -
03:20 2,7 1,4 12,9 WSW 19,3 1015,8 91 -
03:25 2,7 1,4 12,9 WSW 19,3 1015,8 91 -
03:30 2,7 1,4 12,9 SW 17,7 1015,8 91 -
03:35 2,7 1,4 12,9 SW 16,1 1014,8 91 -
03:40 2,7 1,4 8,0 WNW 19,3 1014,8 91 -
03:45 2,7 1,4 14,5 WSW 19,3 1014,8 91 -
03:50 2,7 1,4 11,3 Westen 19,3 1014,8 91 -
03:55 2,7 1,4 12,9 Westen 17,7 1014,8 91 -
04:00 2,7 1,4 12,9 WSW 20,9 1014,8 91 -
04:05 2,7 1,4 12,9 SW 20,9 1014,8 91 -
04:10 2,7 1,4 9,7 Westen 20,9 1014,8 91 -
04:15 2,7 1,4 14,5 SW 17,7 1014,8 91 -
04:20 2,6 1,3 9,7 WSW 19,3 1014,8 91 -
04:25 2,6 1,3 8,0 SW 19,3 1014,8 91 -
04:30 2,6 1,3 12,9 SW 19,3 1014,8 91 -
04:35 2,6 1,3 8,0 Westen 17,7 1014,8 91 -
04:40 2,6 1,3 11,3 WSW 17,7 1014,8 91 -
04:45 2,6 1,3 11,3 WSW 12,9 1014,8 91 -
04:50 2,6 1,3 9,7 WSW 12,9 1014,8 91 -
04:55 2,6 1,3 12,9 WSW 14,5 1014,8 91 -
05:00 2,6 1,3 12,9 WSW 17,7 1014,8 91 -
05:05 2,5 1,2 8,0 WSW 17,7 1014,8 91 -
05:10 2,5 1,2 12,9 WSW 20,9 1014,8 91 -
05:15 2,5 1,2 6,4 Westen 20,9 1014,8 91 -
05:20 2,5 1,2 14,5 Westen 20,9 1013,8 91 -
05:25 2,5 1,2 14,5 WSW 17,7 1013,8 91 -
05:30 2,5 1,2 9,7 Westen 17,7 1013,8 91 -
05:35 2,5 1,2 6,4 SW 17,7 1013,8 91 -
05:40 2,5 1,2 8,0 WNW 19,3 1013,8 91 -
05:45 2,5 1,2 9,7 WSW 19,3 1013,8 91 -
05:50 2,4 1,1 11,3 WSW 17,7 1013,8 91 -
05:55 2,4 1,1 12,9 WSW 16,1 1013,8 91 -
06:00 2,4 1,1 9,7 WSW 16,1 1013,8 91 -
06:05 2,4 1,1   Windstille 12,9 1013,8 91 -
06:10 2,4 0,9 6,4 Westen 12,9 1013,8 90 -
06:15 2,4 0,9 4,8 Westen 12,9 1013,8 90 -
06:20 2,4 0,9 9,7 SW 9,7 1013,8 90 -
06:25 2,4 0,9 8,0 SSW 9,7 1013,8 90 -
06:30 2,4 0,9 9,7 SW 9,7 1013,8 90 -
06:35 2,4 0,9 8,0 SW 12,9 1013,8 90 -
06:40 2,4 0,9 14,5 WSW 14,5 1013,8 90 -
06:45 2,4 0,9 12,9 WSW 14,5 1013,8 90 -
06:50 2,4 0,9 9,7 WSW 20,9 1013,8 90 -
06:55 2,4 0,9 16,1 Süden 20,9 1013,8 90 -
07:00 2,4 0,9 17,7 SW 20,9 1013,8 90 -
07:05 2,4 0,9 9,7 WSW 20,9 1013,8 90 -
07:10 2,4 0,9 9,7 WSW 20,9 1013,8 90 -
07:15 2,4 0,9 12,9 SW 19,3 1013,8 90 -
07:20 2,3 0,8 11,3 WSW 17,7 1013,8 90 -
07:25 2,3 0,8 14,5 SW 16,1 1013,8 90 -
07:30 2,2 0,6 9,7 WSW 17,7 1013,8 89 -
07:35 2,2 0,6 12,9 SW 17,7 1013,8 89 -
07:40 2,1 0,5 8,0 WNW 17,7 1013,8 89 -
07:45 2,0 0,4 9,7 WSW 17,7 1013,8 89 -
07:50 1,9 0,3 9,7 WSW 17,7 1013,8 89 -
07:55 1,9 0,3 11,3 SW 17,7 1013,8 89 -
08:00 1,8 0,2 12,9 SW 17,7 1013,8 89 -
08:05 1,8 0,2 9,7 WSW 14,5 1013,8 89 -
08:10 1,7 0,1 12,9 SW 14,5 1013,8 89 -
08:15 1,7 0,1 8,0 WSW 14,5 1013,8 89 -
08:20 1,8 0,2 12,9 SW 16,1 1013,8 89 -
08:25 1,8 0,2 9,7 SW 16,1 1013,8 89 -
08:30 1,8 0,2 9,7 SW 14,5 1013,8 89 -
08:35 1,8 0,2 9,7 Westen 16,1 1013,8 89 -
08:40 1,9 0,3 9,7 SW 16,1 1013,8 89 -
08:45 2,0 0,4 9,7 SW 12,9 1013,8 89 -
08:50 2,0 0,4 12,9 WSW 17,7 1013,8 89 -
08:55 2,1 0,5 9,7 Westen 17,7 1013,8 89 -
09:00 2,2 0,6 12,9 SW 17,7 1013,8 89 -
09:05 2,3 0,7 12,9 SW 17,7 1013,8 89 -
09:10 2,4 0,8 12,9 SW 19,3 1013,8 89 -
09:15 2,6 1,0 14,5 WSW 19,3 1013,8 89 -
09:20 2,7 1,1 8,0 SW 19,3 1013,8 89 -
09:25 2,8 1,2 14,5 SW 17,7 1013,8 89 -
09:30 3,0 1,2 14,5 SW 17,7 1013,8 88 -
09:35 3,1 1,3 14,5 WSW 17,7 1013,8 88 -
09:40 3,1 1,3 14,5 SW 17,7 1013,8 88 -
09:45 3,2 1,2 12,9 Westen 17,7 1013,8 87 -
09:50 3,2 1,2 12,9 SW 20,9 1013,8 87 -
09:55 3,3 1,3 11,3 WSW 20,9 1013,8 87 -
10:00 3,4 1,4 8,0 SSW 20,9 1013,8 87 -
10:05 3,5 1,5 9,7 Westen 20,9 1012,8 87 -
10:10 3,5 1,5 6,4 SW 22,5 1012,8 87 -
10:15 3,6 1,6 9,7 WSW 22,5 1012,8 87 -
10:20 3,7 1,7 17,7 SW 22,5 1012,8 87 -
10:25 3,8 1,7 9,7 SW 17,7 1012,8 86 -
10:30 4,0 1,9 9,7 SSW 17,7 1012,8 86 -
10:35 4,2 2,1 9,7 Westen 17,7 1012,8 86 -
10:40 4,3 1,8 16,1 Süden 16,1 1012,8 84 -
10:45 4,4 1,8 19,3 WSW 20,9 1012,8 83 -
10:50 4,5 1,9 20,9 WSW 24,1 1012,8 83 -
10:55 4,6 1,8 9,7 WSW 24,1 1012,8 82 -
11:00 4,7 1,9 20,9 SW 24,1 1012,8 82 -
11:05 4,7 1,7 20,9 WSW 20,9 1012,8 81 -
11:10 4,8 1,8 12,9 WSW 24,1 1012,8 81 -
11:15 4,9 1,9 24,1 SW 24,1 1012,8 81 -
Täglich Zusammenfassung für Sonntag 08 Dezember 2019
Zeit Temp. ( °C ) Taupt. ( °C ) Wind ( km/h ) von Windböen ( km/h ) Luftdruck ( hPa ) Luftf.( % ) Regenrate ( cm )
Hoch4,9 2,1 24,1 WSW ( 645/1550 ) 27,4 1016,8 91 -
Durchchnittswerte2,7 1,1 11,4 WSW #54/136 18,5 1014,5 89 -
Tief1,7 0,1 -   9,7 1012,8 81 -
Täglich tabellarische Details für Sonntag 08 Dezember 2019
Zeit Temp. ( °C ) Taupt. ( °C ) Wind ( km/h ) von Windböen ( km/h ) Luftdruck ( hPa ) Luftf.( % ) Regenrate ( cm )
00:00 2,8 1,3 12,9 Westen 25,7 1016,8 90 -
00:05 2,8 1,2 12,9 WNW 25,7 1015,8 89 -
00:10 2,7 1,1 6,4 Westen 25,7 1015,8 89 -
00:15 2,7 1,1 12,9 WSW 17,7 1015,8 89 -
00:20 2,7 1,1 8,0 Westen 17,7 1016,8 89 -
00:25 2,7 1,1 8,0 Westen 17,7 1016,8 89 -
00:30 2,7 1,2 12,9 Westen 16,1 1016,8 90 -
00:35 2,7 1,2 17,7 Westen 20,9 1015,8 90 -
00:40 2,8 1,3 8,0 Westen 20,9 1015,8 90 -
00:45 2,8 1,3 12,9 WSW 27,4 1015,8 90 -
00:50 2,8 1,3 12,9 WSW 27,4 1015,8 90 -
00:55 2,8 1,3 17,7 WSW 27,4 1015,8 90 -
01:00 2,8 1,3 12,9 WSW 16,1 1015,8 90 -
01:05 2,8 1,3 9,7 WSW 17,7 1015,8 90 -
01:10 2,8 1,3 9,7 SW 17,7 1015,8 90 -
01:15 2,8 1,3 9,7 Westen 17,7 1015,8 90 -
01:20 2,8 1,3 8,0 SW 17,7 1015,8 90 -
01:25 2,8 1,3 12,9 Westen 17,7 1015,8 90 -
01:30 2,8 1,3 12,9 Westen 20,9 1015,8 90 -
01:35 2,8 1,3 8,0 WSW 20,9 1015,8 90 -
01:40 2,8 1,3 9,7 WSW 20,9 1015,8 90 -
01:45 2,8 1,3 6,4 Westen 16,1 1015,8 90 -
01:50 2,8 1,3 12,9 SW 17,7 1015,8 90 -
01:55 2,8 1,3 8,0 WSW 20,9 1015,8 90 -
02:00 2,7 1,2 8,0 WNW 20,9 1015,8 90 -
02:05 2,7 1,2 9,7 WSW 20,9 1015,8 90 -
02:10 2,7 1,2 12,9 WSW 16,1 1015,8 90 -
02:15 2,8 1,3 12,9 WSW 17,7 1015,8 90 -
02:20 2,8 1,3 12,9 WSW 20,9 1015,8 90 -
02:25 2,7 1,2 12,9 WNW 20,9 1015,8 90 -
02:30 2,8 1,3 8,0 WSW 20,9 1015,8 90 -
02:35 2,8 1,3 12,9 WNW 20,9 1015,8 90 -
02:40 2,8 1,3 12,9 SW 17,7 1015,8 90 -
02:45 2,8 1,5 4,8 WNW 17,7 1015,8 91 -
02:50 2,8 1,5 9,7 WSW 17,7 1015,8 91 -
02:55 2,8 1,5 14,5 SW 17,7 1015,8 91 -
03:00 2,8 1,5 9,7 Westen 17,7 1015,8 91 -
03:05 2,8 1,5 9,7 WNW 17,7 1015,8 91 -
03:10 2,8 1,5 12,9 WSW 16,1 1015,8 91 -
03:15 2,7 1,4 6,4 Westen 19,3 1015,8 91 -
03:20 2,7 1,4 12,9 WSW 19,3 1015,8 91 -
03:25 2,7 1,4 12,9 WSW 19,3 1015,8 91 -
03:30 2,7 1,4 12,9 SW 17,7 1015,8 91 -
03:35 2,7 1,4 12,9 SW 16,1 1014,8 91 -
03:40 2,7 1,4 8,0 WNW 19,3 1014,8 91 -
03:45 2,7 1,4 14,5 WSW 19,3 1014,8 91 -
03:50 2,7 1,4 11,3 Westen 19,3 1014,8 91 -
03:55 2,7 1,4 12,9 Westen 17,7 1014,8 91 -
04:00 2,7 1,4 12,9 WSW 20,9 1014,8 91 -
04:05 2,7 1,4 12,9 SW 20,9 1014,8 91 -
04:10 2,7 1,4 9,7 Westen 20,9 1014,8 91 -
04:15 2,7 1,4 14,5 SW 17,7 1014,8 91 -
04:20 2,6 1,3 9,7 WSW 19,3 1014,8 91 -
04:25 2,6 1,3 8,0 SW 19,3 1014,8 91 -
04:30 2,6 1,3 12,9 SW 19,3 1014,8 91 -
04:35 2,6 1,3 8,0 Westen 17,7 1014,8 91 -
04:40 2,6 1,3 11,3 WSW 17,7 1014,8 91 -
04:45 2,6 1,3 11,3 WSW 12,9 1014,8 91 -
04:50 2,6 1,3 9,7 WSW 12,9 1014,8 91 -
04:55 2,6 1,3 12,9 WSW 14,5 1014,8 91 -
05:00 2,6 1,3 12,9 WSW 17,7 1014,8 91 -
05:05 2,5 1,2 8,0 WSW 17,7 1014,8 91 -
05:10 2,5 1,2 12,9 WSW 20,9 1014,8 91 -
05:15 2,5 1,2 6,4 Westen 20,9 1014,8 91 -
05:20 2,5 1,2 14,5 Westen 20,9 1013,8 91 -
05:25 2,5 1,2 14,5 WSW 17,7 1013,8 91 -
05:30 2,5 1,2 9,7 Westen 17,7 1013,8 91 -
05:35 2,5 1,2 6,4 SW 17,7 1013,8 91 -
05:40 2,5 1,2 8,0 WNW 19,3 1013,8 91 -
05:45 2,5 1,2 9,7 WSW 19,3 1013,8 91 -
05:50 2,4 1,1 11,3 WSW 17,7 1013,8 91 -
05:55 2,4 1,1 12,9 WSW 16,1 1013,8 91 -
06:00 2,4 1,1 9,7 WSW 16,1 1013,8 91 -
06:05 2,4 1,1   Windstille 12,9 1013,8 91 -
06:10 2,4 0,9 6,4 Westen 12,9 1013,8 90 -
06:15 2,4 0,9 4,8 Westen 12,9 1013,8 90 -
06:20 2,4 0,9 9,7 SW 9,7 1013,8 90 -
06:25 2,4 0,9 8,0 SSW 9,7 1013,8 90 -
06:30 2,4 0,9 9,7 SW 9,7 1013,8 90 -
06:35 2,4 0,9 8,0 SW 12,9 1013,8 90 -
06:40 2,4 0,9 14,5 WSW 14,5 1013,8 90 -
06:45 2,4 0,9 12,9 WSW 14,5 1013,8 90 -
06:50 2,4 0,9 9,7 WSW 20,9 1013,8 90 -
06:55 2,4 0,9 16,1 Süden 20,9 1013,8 90 -
07:00 2,4 0,9 17,7 SW 20,9 1013,8 90 -
07:05 2,4 0,9 9,7 WSW 20,9 1013,8 90 -
07:10 2,4 0,9 9,7 WSW 20,9 1013,8 90 -
07:15 2,4 0,9 12,9 SW 19,3 1013,8 90 -
07:20 2,3 0,8 11,3 WSW 17,7 1013,8 90 -
07:25 2,3 0,8 14,5 SW 16,1 1013,8 90 -
07:30 2,2 0,6 9,7 WSW 17,7 1013,8 89 -
07:35 2,2 0,6 12,9 SW 17,7 1013,8 89 -
07:40 2,1 0,5 8,0 WNW 17,7 1013,8 89 -
07:45 2,0 0,4 9,7 WSW 17,7 1013,8 89 -
07:50 1,9 0,3 9,7 WSW 17,7 1013,8 89 -
07:55 1,9 0,3 11,3 SW 17,7 1013,8 89 -
08:00 1,8 0,2 12,9 SW 17,7 1013,8 89 -
08:05 1,8 0,2 9,7 WSW 14,5 1013,8 89 -
08:10 1,7 0,1 12,9 SW 14,5 1013,8 89 -
08:15 1,7 0,1 8,0 WSW 14,5 1013,8 89 -
08:20 1,8 0,2 12,9 SW 16,1 1013,8 89 -
08:25 1,8 0,2 9,7 SW 16,1 1013,8 89 -
08:30 1,8 0,2 9,7 SW 14,5 1013,8 89 -
08:35 1,8 0,2 9,7 Westen 16,1 1013,8 89 -
08:40 1,9 0,3 9,7 SW 16,1 1013,8 89 -
08:45 2,0 0,4 9,7 SW 12,9 1013,8 89 -
08:50 2,0 0,4 12,9 WSW 17,7 1013,8 89 -
08:55 2,1 0,5 9,7 Westen 17,7 1013,8 89 -
09:00 2,2 0,6 12,9 SW 17,7 1013,8 89 -
09:05 2,3 0,7 12,9 SW 17,7 1013,8 89 -
09:10 2,4 0,8 12,9 SW 19,3 1013,8 89 -
09:15 2,6 1,0 14,5 WSW 19,3 1013,8 89 -
09:20 2,7 1,1 8,0 SW 19,3 1013,8 89 -
09:25 2,8 1,2 14,5 SW 17,7 1013,8 89 -
09:30 3,0 1,2 14,5 SW 17,7 1013,8 88 -
09:35 3,1 1,3 14,5 WSW 17,7 1013,8 88 -
09:40 3,1 1,3 14,5 SW 17,7 1013,8 88 -
09:45 3,2 1,2 12,9 Westen 17,7 1013,8 87 -
09:50 3,2 1,2 12,9 SW 20,9 1013,8 87 -
09:55 3,3 1,3 11,3 WSW 20,9 1013,8 87 -
10:00 3,4 1,4 8,0 SSW 20,9 1013,8 87 -
10:05 3,5 1,5 9,7 Westen 20,9 1012,8 87 -
10:10 3,5 1,5 6,4 SW 22,5 1012,8 87 -
10:15 3,6 1,6 9,7 WSW 22,5 1012,8 87 -
10:20 3,7 1,7 17,7 SW 22,5 1012,8 87 -
10:25 3,8 1,7 9,7 SW 17,7 1012,8 86 -
10:30 4,0 1,9 9,7 SSW 17,7 1012,8 86 -
10:35 4,2 2,1 9,7 Westen 17,7 1012,8 86 -
10:40 4,3 1,8 16,1 Süden 16,1 1012,8 84 -
10:45 4,4 1,8 19,3 WSW 20,9 1012,8 83 -
10:50 4,5 1,9 20,9 WSW 24,1 1012,8 83 -
10:55 4,6 1,8 9,7 WSW 24,1 1012,8 82 -
11:00 4,7 1,9 20,9 SW 24,1 1012,8 82 -
11:05 4,7 1,7 20,9 WSW 20,9 1012,8 81 -
11:10 4,8 1,8 12,9 WSW 24,1 1012,8 81 -
11:15 4,9 1,9 24,1 SW 24,1 1012,8 81 -

Lade ein Kopie deiner Daten  here

Meine Wetterdaten gespeichert auf Weather Underground. Script entwickelt von Jim McMurry. Angepasst für das Template von Leuven-Template.eu